sensor_id;sensor_type;location;lat;lon;timestamp;P1;durP1;ratioP1;P2;durP2;ratioP2
58643;SDS011;44411;49.994;8.660;2023-08-06T00:01:33;10.07;;;6.07;;
58643;SDS011;44411;49.994;8.660;2023-08-06T00:03:59;8.47;;;5.10;;
58643;SDS011;44411;49.994;8.660;2023-08-06T00:06:25;8.18;;;5.30;;
58643;SDS011;44411;49.994;8.660;2023-08-06T00:08:50;7.07;;;5.27;;
58643;SDS011;44411;49.994;8.660;2023-08-06T00:11:15;8.10;;;6.03;;
58643;SDS011;44411;49.994;8.660;2023-08-06T00:13:40;6.90;;;5.23;;
58643;SDS011;44411;49.994;8.660;2023-08-06T00:16:12;8.70;;;5.63;;
58643;SDS011;44411;49.994;8.660;2023-08-06T00:18:37;10.15;;;6.00;;
58643;SDS011;44411;49.994;8.660;2023-08-06T00:21:03;8.93;;;5.82;;
58643;SDS011;44411;49.994;8.660;2023-08-06T00:23:28;7.55;;;5.03;;
58643;SDS011;44411;49.994;8.660;2023-08-06T00:25:53;9.87;;;5.70;;
58643;SDS011;44411;49.994;8.660;2023-08-06T00:28:18;9.37;;;5.43;;
58643;SDS011;44411;49.994;8.660;2023-08-06T00:30:44;9.50;;;5.97;;
58643;SDS011;44411;49.994;8.660;2023-08-06T00:33:09;8.43;;;4.97;;
58643;SDS011;44411;49.994;8.660;2023-08-06T00:35:34;7.15;;;4.97;;
58643;SDS011;44411;49.994;8.660;2023-08-06T00:38:00;9.33;;;5.03;;
58643;SDS011;44411;49.994;8.660;2023-08-06T00:40:25;7.83;;;5.27;;
58643;SDS011;44411;49.994;8.660;2023-08-06T00:42:50;8.57;;;5.40;;
58643;SDS011;44411;49.994;8.660;2023-08-06T00:45:15;5.97;;;4.05;;
58643;SDS011;44411;49.994;8.660;2023-08-06T00:47:41;7.90;;;4.70;;
58643;SDS011;44411;49.994;8.660;2023-08-06T00:50:07;7.28;;;4.53;;
58643;SDS011;44411;49.994;8.660;2023-08-06T00:52:32;8.30;;;4.75;;
58643;SDS011;44411;49.994;8.660;2023-08-06T00:54:58;7.75;;;4.88;;
58643;SDS011;44411;49.994;8.660;2023-08-06T00:57:24;7.33;;;4.53;;
58643;SDS011;44411;49.994;8.660;2023-08-06T00:59:49;6.47;;;4.43;;
58643;SDS011;44411;49.994;8.660;2023-08-06T01:02:15;5.67;;;4.23;;
58643;SDS011;44411;49.994;8.660;2023-08-06T01:04:40;6.18;;;4.30;;
58643;SDS011;44411;49.994;8.660;2023-08-06T01:14:54;8.00;;;5.07;;
58643;SDS011;44411;49.994;8.660;2023-08-06T01:17:22;8.13;;;4.47;;
58643;SDS011;44411;49.994;8.660;2023-08-06T01:19:48;8.23;;;4.72;;
58643;SDS011;44411;49.994;8.660;2023-08-06T01:22:13;7.13;;;4.77;;
58643;SDS011;44411;49.994;8.660;2023-08-06T01:24:39;8.68;;;4.78;;
58643;SDS011;44411;49.994;8.660;2023-08-06T01:27:06;7.80;;;4.25;;
58643;SDS011;44411;49.994;8.660;2023-08-06T01:29:35;5.53;;;3.65;;
58643;SDS011;44411;49.994;8.660;2023-08-06T01:32:04;6.38;;;3.80;;
58643;SDS011;44411;49.994;8.660;2023-08-06T01:34:30;7.55;;;3.95;;
58643;SDS011;44411;49.994;8.660;2023-08-06T01:36:56;7.07;;;4.13;;
58643;SDS011;44411;49.994;8.660;2023-08-06T01:39:21;5.20;;;3.47;;
58643;SDS011;44411;49.994;8.660;2023-08-06T01:41:47;6.60;;;3.77;;
58643;SDS011;44411;49.994;8.660;2023-08-06T01:44:12;7.53;;;3.50;;
58643;SDS011;44411;49.994;8.660;2023-08-06T01:46:38;5.32;;;3.80;;
58643;SDS011;44411;49.994;8.660;2023-08-06T01:49:03;5.87;;;3.87;;
58643;SDS011;44411;49.994;8.660;2023-08-06T01:51:28;8.33;;;3.53;;
58643;SDS011;44411;49.994;8.660;2023-08-06T01:53:53;5.60;;;3.87;;
58643;SDS011;44411;49.994;8.660;2023-08-06T01:56:19;5.40;;;3.33;;
58643;SDS011;44411;49.994;8.660;2023-08-06T01:58:44;6.13;;;3.45;;
58643;SDS011;44411;49.994;8.660;2023-08-06T02:01:09;6.30;;;3.43;;
58643;SDS011;44411;49.994;8.660;2023-08-06T02:03:34;6.00;;;3.70;;
58643;SDS011;44411;49.994;8.660;2023-08-06T02:05:59;8.27;;;3.33;;
58643;SDS011;44411;49.994;8.660;2023-08-06T02:08:25;7.37;;;3.93;;
58643;SDS011;44411;49.994;8.660;2023-08-06T02:10:50;6.03;;;3.80;;
58643;SDS011;44411;49.994;8.660;2023-08-06T02:13:15;5.03;;;3.13;;
58643;SDS011;44411;49.994;8.660;2023-08-06T02:15:43;6.63;;;3.50;;
58643;SDS011;44411;49.994;8.660;2023-08-06T02:18:09;6.22;;;3.53;;
58643;SDS011;44411;49.994;8.660;2023-08-06T02:20:34;6.60;;;3.03;;
58643;SDS011;44411;49.994;8.660;2023-08-06T02:22:59;9.75;;;4.75;;
58643;SDS011;44411;49.994;8.660;2023-08-06T02:25:24;6.07;;;3.47;;
58643;SDS011;44411;49.994;8.660;2023-08-06T02:27:50;7.17;;;3.37;;
58643;SDS011;44411;49.994;8.660;2023-08-06T02:30:15;4.70;;;2.83;;
58643;SDS011;44411;49.994;8.660;2023-08-06T02:32:40;8.17;;;3.00;;
58643;SDS011;44411;49.994;8.660;2023-08-06T02:35:05;6.63;;;3.50;;
58643;SDS011;44411;49.994;8.660;2023-08-06T02:37:33;5.20;;;3.20;;
58643;SDS011;44411;49.994;8.660;2023-08-06T02:39:58;5.35;;;3.58;;
58643;SDS011;44411;49.994;8.660;2023-08-06T02:42:23;5.78;;;2.92;;
58643;SDS011;44411;49.994;8.660;2023-08-06T02:44:50;7.15;;;3.00;;
58643;SDS011;44411;49.994;8.660;2023-08-06T02:47:15;5.07;;;3.30;;
58643;SDS011;44411;49.994;8.660;2023-08-06T02:49:40;7.50;;;3.37;;
58643;SDS011;44411;49.994;8.660;2023-08-06T02:52:06;4.53;;;2.70;;
58643;SDS011;44411;49.994;8.660;2023-08-06T02:54:31;6.07;;;3.35;;
58643;SDS011;44411;49.994;8.660;2023-08-06T02:56:56;6.95;;;3.78;;
58643;SDS011;44411;49.994;8.660;2023-08-06T02:59:21;5.03;;;3.30;;
58643;SDS011;44411;49.994;8.660;2023-08-06T03:01:47;5.43;;;3.57;;
58643;SDS011;44411;49.994;8.660;2023-08-06T03:04:12;5.37;;;3.20;;
58643;SDS011;44411;49.994;8.660;2023-08-06T03:06:37;5.43;;;3.05;;
58643;SDS011;44411;49.994;8.660;2023-08-06T03:09:02;4.87;;;2.87;;
58643;SDS011;44411;49.994;8.660;2023-08-06T03:11:28;6.37;;;3.17;;
58643;SDS011;44411;49.994;8.660;2023-08-06T03:13:53;5.87;;;3.13;;
58643;SDS011;44411;49.994;8.660;2023-08-06T03:16:18;6.43;;;3.23;;
58643;SDS011;44411;49.994;8.660;2023-08-06T03:18:43;5.63;;;2.90;;
58643;SDS011;44411;49.994;8.660;2023-08-06T03:21:08;7.38;;;2.67;;
58643;SDS011;44411;49.994;8.660;2023-08-06T03:23:34;6.10;;;2.97;;
58643;SDS011;44411;49.994;8.660;2023-08-06T03:26:02;4.30;;;2.60;;
58643;SDS011;44411;49.994;8.660;2023-08-06T03:28:28;4.93;;;2.42;;
58643;SDS011;44411;49.994;8.660;2023-08-06T03:31:00;4.65;;;2.40;;
58643;SDS011;44411;49.994;8.660;2023-08-06T03:33:25;6.78;;;2.33;;
58643;SDS011;44411;49.994;8.660;2023-08-06T03:35:50;4.47;;;2.30;;
58643;SDS011;44411;49.994;8.660;2023-08-06T03:38:16;5.37;;;2.30;;
58643;SDS011;44411;49.994;8.660;2023-08-06T03:40:41;6.63;;;2.50;;
58643;SDS011;44411;49.994;8.660;2023-08-06T03:43:06;5.93;;;2.20;;
58643;SDS011;44411;49.994;8.660;2023-08-06T03:45:31;3.77;;;2.13;;
58643;SDS011;44411;49.994;8.660;2023-08-06T03:47:56;5.63;;;2.42;;
58643;SDS011;44411;49.994;8.660;2023-08-06T03:50:22;4.17;;;1.97;;
58643;SDS011;44411;49.994;8.660;2023-08-06T03:52:47;3.87;;;2.23;;
58643;SDS011;44411;49.994;8.660;2023-08-06T03:55:12;5.17;;;2.93;;
58643;SDS011;44411;49.994;8.660;2023-08-06T03:57:37;6.60;;;2.90;;
58643;SDS011;44411;49.994;8.660;2023-08-06T04:00:03;4.70;;;2.40;;
58643;SDS011;44411;49.994;8.660;2023-08-06T04:02:28;5.35;;;2.30;;
58643;SDS011;44411;49.994;8.660;2023-08-06T04:04:54;8.00;;;2.80;;
58643;SDS011;44411;49.994;8.660;2023-08-06T04:07:19;9.65;;;3.00;;
58643;SDS011;44411;49.994;8.660;2023-08-06T04:12:18;4.35;;;2.38;;
58643;SDS011;44411;49.994;8.660;2023-08-06T04:14:43;6.30;;;3.10;;
58643;SDS011;44411;49.994;8.660;2023-08-06T04:17:09;4.85;;;2.40;;
58643;SDS011;44411;49.994;8.660;2023-08-06T04:19:34;4.90;;;2.33;;
58643;SDS011;44411;49.994;8.660;2023-08-06T04:21:59;9.03;;;3.03;;
58643;SDS011;44411;49.994;8.660;2023-08-06T04:24:24;3.43;;;2.03;;
58643;SDS011;44411;49.994;8.660;2023-08-06T04:26:49;3.90;;;2.10;;
58643;SDS011;44411;49.994;8.660;2023-08-06T04:29:15;5.85;;;2.35;;
58643;SDS011;44411;49.994;8.660;2023-08-06T04:31:40;6.53;;;2.80;;
58643;SDS011;44411;49.994;8.660;2023-08-06T04:34:05;5.63;;;2.70;;
58643;SDS011;44411;49.994;8.660;2023-08-06T04:36:31;6.67;;;3.00;;
58643;SDS011;44411;49.994;8.660;2023-08-06T04:38:56;5.30;;;2.97;;
58643;SDS011;44411;49.994;8.660;2023-08-06T04:41:21;5.65;;;2.75;;
58643;SDS011;44411;49.994;8.660;2023-08-06T04:43:46;5.37;;;3.17;;
58643;SDS011;44411;49.994;8.660;2023-08-06T04:46:11;4.43;;;2.30;;
58643;SDS011;44411;49.994;8.660;2023-08-06T04:48:37;5.97;;;3.07;;
58643;SDS011;44411;49.994;8.660;2023-08-06T04:51:02;8.87;;;3.40;;
58643;SDS011;44411;49.994;8.660;2023-08-06T04:53:27;5.80;;;3.60;;
58643;SDS011;44411;49.994;8.660;2023-08-06T04:55:52;5.50;;;2.60;;
58643;SDS011;44411;49.994;8.660;2023-08-06T04:58:17;7.57;;;3.28;;
58643;SDS011;44411;49.994;8.660;2023-08-06T05:00:43;6.27;;;3.50;;
58643;SDS011;44411;49.994;8.660;2023-08-06T05:03:08;7.03;;;3.23;;
58643;SDS011;44411;49.994;8.660;2023-08-06T05:05:33;7.50;;;3.70;;
58643;SDS011;44411;49.994;8.660;2023-08-06T05:07:58;7.20;;;3.22;;
58643;SDS011;44411;49.994;8.660;2023-08-06T05:10:24;6.63;;;3.10;;
58643;SDS011;44411;49.994;8.660;2023-08-06T05:12:49;6.15;;;3.10;;
58643;SDS011;44411;49.994;8.660;2023-08-06T05:15:14;6.17;;;3.33;;
58643;SDS011;44411;49.994;8.660;2023-08-06T05:17:40;6.32;;;3.53;;
58643;SDS011;44411;49.994;8.660;2023-08-06T05:20:05;6.17;;;3.50;;
58643;SDS011;44411;49.994;8.660;2023-08-06T05:22:30;5.05;;;3.08;;
58643;SDS011;44411;49.994;8.660;2023-08-06T05:24:55;10.00;;;4.10;;
58643;SDS011;44411;49.994;8.660;2023-08-06T05:27:21;5.90;;;3.40;;
58643;SDS011;44411;49.994;8.660;2023-08-06T05:29:47;7.00;;;4.07;;
58643;SDS011;44411;49.994;8.660;2023-08-06T05:32:12;7.80;;;4.07;;
58643;SDS011;44411;49.994;8.660;2023-08-06T05:34:37;7.37;;;4.03;;
58643;SDS011;44411;49.994;8.660;2023-08-06T05:37:03;8.27;;;3.70;;
58643;SDS011;44411;49.994;8.660;2023-08-06T05:39:28;7.68;;;3.63;;
58643;SDS011;44411;49.994;8.660;2023-08-06T05:41:54;5.40;;;3.10;;
58643;SDS011;44411;49.994;8.660;2023-08-06T05:44:20;5.75;;;3.25;;
58643;SDS011;44411;49.994;8.660;2023-08-06T05:46:45;7.63;;;2.70;;
58643;SDS011;44411;49.994;8.660;2023-08-06T05:49:10;5.10;;;2.40;;
58643;SDS011;44411;49.994;8.660;2023-08-06T05:51:37;7.80;;;2.65;;
58643;SDS011;44411;49.994;8.660;2023-08-06T05:54:02;5.87;;;1.90;;
58643;SDS011;44411;49.994;8.660;2023-08-06T05:56:28;4.68;;;2.17;;
58643;SDS011;44411;49.994;8.660;2023-08-06T05:58:53;5.07;;;2.17;;
58643;SDS011;44411;49.994;8.660;2023-08-06T06:01:19;6.50;;;2.10;;
58643;SDS011;44411;49.994;8.660;2023-08-06T06:03:44;4.45;;;1.95;;
58643;SDS011;44411;49.994;8.660;2023-08-06T06:06:09;4.77;;;1.57;;
58643;SDS011;44411;49.994;8.660;2023-08-06T06:08:34;5.83;;;2.07;;
58643;SDS011;44411;49.994;8.660;2023-08-06T06:11:00;5.33;;;1.40;;
58643;SDS011;44411;49.994;8.660;2023-08-06T06:13:25;2.23;;;1.10;;
58643;SDS011;44411;49.994;8.660;2023-08-06T06:15:50;3.47;;;1.20;;
58643;SDS011;44411;49.994;8.660;2023-08-06T06:18:18;3.60;;;1.60;;
58643;SDS011;44411;49.994;8.660;2023-08-06T06:20:44;3.87;;;1.80;;
58643;SDS011;44411;49.994;8.660;2023-08-06T06:23:09;4.63;;;1.80;;
58643;SDS011;44411;49.994;8.660;2023-08-06T06:25:34;3.90;;;1.92;;
58643;SDS011;44411;49.994;8.660;2023-08-06T06:27:59;5.63;;;2.10;;
58643;SDS011;44411;49.994;8.660;2023-08-06T06:30:25;4.38;;;1.90;;
58643;SDS011;44411;49.994;8.660;2023-08-06T06:32:50;3.70;;;1.90;;
58643;SDS011;44411;49.994;8.660;2023-08-06T06:35:15;5.33;;;1.80;;
58643;SDS011;44411;49.994;8.660;2023-08-06T06:37:40;4.17;;;2.20;;
58643;SDS011;44411;49.994;8.660;2023-08-06T06:40:05;5.43;;;2.10;;
58643;SDS011;44411;49.994;8.660;2023-08-06T06:42:31;4.95;;;1.98;;
58643;SDS011;44411;49.994;8.660;2023-08-06T06:44:56;8.40;;;2.07;;
58643;SDS011;44411;49.994;8.660;2023-08-06T06:47:21;4.37;;;2.07;;
58643;SDS011;44411;49.994;8.660;2023-08-06T06:49:47;7.13;;;2.47;;
58643;SDS011;44411;49.994;8.660;2023-08-06T06:52:12;6.78;;;2.50;;
58643;SDS011;44411;49.994;8.660;2023-08-06T06:54:37;3.60;;;1.88;;
58643;SDS011;44411;49.994;8.660;2023-08-06T06:57:02;7.03;;;2.57;;
58643;SDS011;44411;49.994;8.660;2023-08-06T06:59:28;3.33;;;1.90;;
58643;SDS011;44411;49.994;8.660;2023-08-06T07:01:53;4.47;;;2.28;;
58643;SDS011;44411;49.994;8.660;2023-08-06T07:04:18;4.50;;;2.00;;
58643;SDS011;44411;49.994;8.660;2023-08-06T07:06:44;3.57;;;1.67;;
58643;SDS011;44411;49.994;8.660;2023-08-06T07:09:09;4.60;;;1.52;;
58643;SDS011;44411;49.994;8.660;2023-08-06T07:11:34;4.15;;;1.40;;
58643;SDS011;44411;49.994;8.660;2023-08-06T07:13:59;3.60;;;1.50;;
58643;SDS011;44411;49.994;8.660;2023-08-06T07:16:25;2.50;;;1.00;;
58643;SDS011;44411;49.994;8.660;2023-08-06T07:18:53;1.73;;;0.90;;
58643;SDS011;44411;49.994;8.660;2023-08-06T07:21:19;3.38;;;1.20;;
58643;SDS011;44411;49.994;8.660;2023-08-06T07:23:44;1.87;;;0.97;;
58643;SDS011;44411;49.994;8.660;2023-08-06T07:26:10;1.50;;;0.80;;
58643;SDS011;44411;49.994;8.660;2023-08-06T07:28:35;2.73;;;0.70;;
58643;SDS011;44411;49.994;8.660;2023-08-06T07:31:02;1.37;;;0.80;;
58643;SDS011;44411;49.994;8.660;2023-08-06T07:33:27;1.65;;;0.90;;
58643;SDS011;44411;49.994;8.660;2023-08-06T07:35:52;4.87;;;0.97;;
58643;SDS011;44411;49.994;8.660;2023-08-06T07:38:18;1.63;;;0.83;;
58643;SDS011;44411;49.994;8.660;2023-08-06T07:40:43;1.52;;;0.80;;
58643;SDS011;44411;49.994;8.660;2023-08-06T07:43:08;2.65;;;0.75;;
58643;SDS011;44411;49.994;8.660;2023-08-06T07:45:34;1.40;;;0.80;;
58643;SDS011;44411;49.994;8.660;2023-08-06T07:48:00;2.50;;;1.02;;
58643;SDS011;44411;49.994;8.660;2023-08-06T07:50:25;6.27;;;1.30;;
58643;SDS011;44411;49.994;8.660;2023-08-06T07:52:51;3.73;;;1.33;;
58643;SDS011;44411;49.994;8.660;2023-08-06T07:55:16;3.27;;;1.67;;
58643;SDS011;44411;49.994;8.660;2023-08-06T07:57:41;4.93;;;1.50;;
58643;SDS011;44411;49.994;8.660;2023-08-06T08:00:06;3.63;;;1.47;;
58643;SDS011;44411;49.994;8.660;2023-08-06T08:02:32;5.75;;;1.85;;
58643;SDS011;44411;49.994;8.660;2023-08-06T08:04:57;5.70;;;2.20;;
58643;SDS011;44411;49.994;8.660;2023-08-06T08:07:22;6.40;;;2.23;;
58643;SDS011;44411;49.994;8.660;2023-08-06T08:09:47;4.57;;;2.03;;
58643;SDS011;44411;49.994;8.660;2023-08-06T08:12:13;6.20;;;2.55;;
58643;SDS011;44411;49.994;8.660;2023-08-06T08:14:38;8.83;;;2.97;;
58643;SDS011;44411;49.994;8.660;2023-08-06T08:17:04;4.40;;;1.90;;
58643;SDS011;44411;49.994;8.660;2023-08-06T08:19:30;4.22;;;1.58;;
58643;SDS011;44411;49.994;8.660;2023-08-06T08:21:55;7.13;;;1.95;;
58643;SDS011;44411;49.994;8.660;2023-08-06T08:24:21;5.80;;;2.10;;
58643;SDS011;44411;49.994;8.660;2023-08-06T08:26:48;4.90;;;2.10;;
58643;SDS011;44411;49.994;8.660;2023-08-06T08:29:14;4.22;;;1.52;;
58643;SDS011;44411;49.994;8.660;2023-08-06T08:31:39;4.30;;;1.83;;
58643;SDS011;44411;49.994;8.660;2023-08-06T08:34:04;3.63;;;1.70;;
58643;SDS011;44411;49.994;8.660;2023-08-06T08:36:30;4.13;;;2.75;;
58643;SDS011;44411;49.994;8.660;2023-08-06T08:38:55;3.03;;;1.33;;
58643;SDS011;44411;49.994;8.660;2023-08-06T08:41:21;6.05;;;1.77;;
58643;SDS011;44411;49.994;8.660;2023-08-06T08:43:46;5.38;;;1.40;;
58643;SDS011;44411;49.994;8.660;2023-08-06T08:46:12;7.32;;;1.60;;
58643;SDS011;44411;49.994;8.660;2023-08-06T08:48:38;3.78;;;1.40;;
58643;SDS011;44411;49.994;8.660;2023-08-06T08:51:04;4.32;;;1.50;;
58643;SDS011;44411;49.994;8.660;2023-08-06T08:53:30;4.75;;;1.80;;
58643;SDS011;44411;49.994;8.660;2023-08-06T08:55:56;5.80;;;1.63;;
58643;SDS011;44411;49.994;8.660;2023-08-06T08:58:21;4.40;;;1.50;;
58643;SDS011;44411;49.994;8.660;2023-08-06T09:00:47;4.25;;;1.10;;
58643;SDS011;44411;49.994;8.660;2023-08-06T09:03:15;2.33;;;1.17;;
58643;SDS011;44411;49.994;8.660;2023-08-06T09:05:43;3.67;;;1.00;;
58643;SDS011;44411;49.994;8.660;2023-08-06T09:08:08;2.33;;;1.23;;
58643;SDS011;44411;49.994;8.660;2023-08-06T09:10:36;1.63;;;1.00;;
58643;SDS011;44411;49.994;8.660;2023-08-06T09:13:02;2.58;;;0.82;;
58643;SDS011;44411;49.994;8.660;2023-08-06T09:15:28;2.95;;;1.00;;
58643;SDS011;44411;49.994;8.660;2023-08-06T09:17:54;1.38;;;0.60;;
58643;SDS011;44411;49.994;8.660;2023-08-06T09:20:19;1.25;;;0.65;;
58643;SDS011;44411;49.994;8.660;2023-08-06T09:22:45;0.77;;;0.60;;
58643;SDS011;44411;49.994;8.660;2023-08-06T09:25:10;1.92;;;0.50;;
58643;SDS011;44411;49.994;8.660;2023-08-06T09:27:37;1.38;;;0.65;;
58643;SDS011;44411;49.994;8.660;2023-08-06T09:30:02;1.10;;;0.60;;
58643;SDS011;44411;49.994;8.660;2023-08-06T09:32:38;0.40;;;0.40;;
58643;SDS011;44411;49.994;8.660;2023-08-06T09:35:10;0.50;;;0.40;;
58643;SDS011;44411;49.994;8.660;2023-08-06T09:37:40;0.80;;;0.55;;
58643;SDS011;44411;49.994;8.660;2023-08-06T09:40:20;1.33;;;0.60;;
58643;SDS011;44411;49.994;8.660;2023-08-06T09:42:48;1.40;;;0.47;;
58643;SDS011;44411;49.994;8.660;2023-08-06T09:45:15;0.50;;;0.40;;
58643;SDS011;44411;49.994;8.660;2023-08-06T09:47:41;1.85;;;0.80;;
58643;SDS011;44411;49.994;8.660;2023-08-06T09:50:06;1.23;;;0.60;;
58643;SDS011;44411;49.994;8.660;2023-08-06T09:52:39;1.00;;;0.57;;
58643;SDS011;44411;49.994;8.660;2023-08-06T09:55:05;3.13;;;0.40;;
58643;SDS011;44411;49.994;8.660;2023-08-06T09:57:30;0.60;;;0.50;;
58643;SDS011;44411;49.994;8.660;2023-08-06T09:59:56;0.82;;;0.50;;
58643;SDS011;44411;49.994;8.660;2023-08-06T10:02:22;1.05;;;0.50;;
58643;SDS011;44411;49.994;8.660;2023-08-06T10:04:49;1.17;;;0.60;;
58643;SDS011;44411;49.994;8.660;2023-08-06T10:07:14;0.90;;;0.55;;
58643;SDS011;44411;49.994;8.660;2023-08-06T10:09:41;0.20;;;0.20;;
58643;SDS011;44411;49.994;8.660;2023-08-06T10:12:06;1.00;;;0.40;;
58643;SDS011;44411;49.994;8.660;2023-08-06T10:14:32;1.27;;;0.40;;
58643;SDS011;44411;49.994;8.660;2023-08-06T10:16:58;0.20;;;0.20;;
58643;SDS011;44411;49.994;8.660;2023-08-06T10:19:24;0.88;;;0.47;;
58643;SDS011;44411;49.994;8.660;2023-08-06T10:22:09;1.15;;;0.60;;
58643;SDS011;44411;49.994;8.660;2023-08-06T10:24:53;1.63;;;0.40;;
58643;SDS011;44411;49.994;8.660;2023-08-06T10:29:53;0.60;;;0.32;;
58643;SDS011;44411;49.994;8.660;2023-08-06T10:32:18;1.00;;;0.43;;
58643;SDS011;44411;49.994;8.660;2023-08-06T10:35:01;0.63;;;0.40;;
58643;SDS011;44411;49.994;8.660;2023-08-06T10:37:34;1.00;;;0.45;;
58643;SDS011;44411;49.994;8.660;2023-08-06T10:40:00;1.20;;;0.60;;
58643;SDS011;44411;49.994;8.660;2023-08-06T10:42:28;0.57;;;0.30;;
58643;SDS011;44411;49.994;8.660;2023-08-06T10:45:12;1.58;;;0.50;;
58643;SDS011;44411;49.994;8.660;2023-08-06T10:47:39;0.70;;;0.40;;
58643;SDS011;44411;49.994;8.660;2023-08-06T10:50:05;1.38;;;0.52;;
58643;SDS011;44411;49.994;8.660;2023-08-06T10:52:31;1.13;;;0.60;;
58643;SDS011;44411;49.994;8.660;2023-08-06T10:54:56;2.13;;;0.63;;
58643;SDS011;44411;49.994;8.660;2023-08-06T10:57:21;2.20;;;0.63;;
58643;SDS011;44411;49.994;8.660;2023-08-06T10:59:46;1.70;;;0.80;;
58643;SDS011;44411;49.994;8.660;2023-08-06T11:02:11;1.43;;;0.60;;
58643;SDS011;44411;49.994;8.660;2023-08-06T11:04:37;1.43;;;0.70;;
58643;SDS011;44411;49.994;8.660;2023-08-06T11:07:03;1.33;;;0.70;;
58643;SDS011;44411;49.994;8.660;2023-08-06T11:09:28;1.10;;;0.40;;
58643;SDS011;44411;49.994;8.660;2023-08-06T11:11:53;2.57;;;0.70;;
58643;SDS011;44411;49.994;8.660;2023-08-06T11:14:18;0.80;;;0.40;;
58643;SDS011;44411;49.994;8.660;2023-08-06T11:16:44;0.60;;;0.40;;
58643;SDS011;44411;49.994;8.660;2023-08-06T11:19:09;1.42;;;0.47;;
58643;SDS011;44411;49.994;8.660;2023-08-06T11:21:34;0.50;;;0.32;;
58643;SDS011;44411;49.994;8.660;2023-08-06T11:24:00;0.98;;;0.40;;
58643;SDS011;44411;49.994;8.660;2023-08-06T11:26:25;1.02;;;0.40;;
58643;SDS011;44411;49.994;8.660;2023-08-06T11:28:52;1.60;;;0.90;;
58643;SDS011;44411;49.994;8.660;2023-08-06T11:31:18;0.73;;;0.30;;
58643;SDS011;44411;49.994;8.660;2023-08-06T11:33:43;0.30;;;0.30;;
58643;SDS011;44411;49.994;8.660;2023-08-06T11:36:09;0.60;;;0.40;;
58643;SDS011;44411;49.994;8.660;2023-08-06T11:38:34;0.50;;;0.43;;
58643;SDS011;44411;49.994;8.660;2023-08-06T11:40:59;0.73;;;0.50;;
58643;SDS011;44411;49.994;8.660;2023-08-06T11:43:24;2.20;;;0.73;;
58643;SDS011;44411;49.994;8.660;2023-08-06T11:45:50;1.60;;;0.60;;
58643;SDS011;44411;49.994;8.660;2023-08-06T11:48:15;0.20;;;0.20;;
58643;SDS011;44411;49.994;8.660;2023-08-06T11:50:41;0.63;;;0.35;;
58643;SDS011;44411;49.994;8.660;2023-08-06T11:53:07;0.77;;;0.30;;
58643;SDS011;44411;49.994;8.660;2023-08-06T11:55:32;0.67;;;0.20;;
58643;SDS011;44411;49.994;8.660;2023-08-06T11:57:58;0.75;;;0.17;;
58643;SDS011;44411;49.994;8.660;2023-08-06T12:00:24;0.45;;;0.20;;
58643;SDS011;44411;49.994;8.660;2023-08-06T12:02:49;1.33;;;0.35;;
58643;SDS011;44411;49.994;8.660;2023-08-06T12:05:17;1.77;;;0.30;;
58643;SDS011;44411;49.994;8.660;2023-08-06T12:07:45;1.10;;;0.52;;
58643;SDS011;44411;49.994;8.660;2023-08-06T12:10:14;0.25;;;0.20;;
58643;SDS011;44411;49.994;8.660;2023-08-06T12:12:40;1.25;;;0.30;;
58643;SDS011;44411;49.994;8.660;2023-08-06T12:15:06;0.67;;;0.40;;
58643;SDS011;44411;49.994;8.660;2023-08-06T12:17:31;0.98;;;0.52;;
58643;SDS011;44411;49.994;8.660;2023-08-06T12:19:56;0.50;;;0.50;;
58643;SDS011;44411;49.994;8.660;2023-08-06T12:22:22;0.47;;;0.47;;
58643;SDS011;44411;49.994;8.660;2023-08-06T12:24:47;2.25;;;0.47;;
58643;SDS011;44411;49.994;8.660;2023-08-06T12:27:12;0.95;;;0.50;;
58643;SDS011;44411;49.994;8.660;2023-08-06T12:29:41;1.95;;;0.55;;
58643;SDS011;44411;49.994;8.660;2023-08-06T12:32:07;1.23;;;0.65;;
58643;SDS011;44411;49.994;8.660;2023-08-06T12:34:33;1.40;;;0.50;;
58643;SDS011;44411;49.994;8.660;2023-08-06T12:36:58;2.03;;;0.50;;
58643;SDS011;44411;49.994;8.660;2023-08-06T12:39:23;0.93;;;0.47;;
58643;SDS011;44411;49.994;8.660;2023-08-06T12:41:49;1.93;;;0.80;;
58643;SDS011;44411;49.994;8.660;2023-08-06T12:44:14;2.08;;;0.63;;
58643;SDS011;44411;49.994;8.660;2023-08-06T12:46:39;2.03;;;0.70;;
58643;SDS011;44411;49.994;8.660;2023-08-06T12:49:04;1.63;;;0.80;;
58643;SDS011;44411;49.994;8.660;2023-08-06T12:51:30;1.15;;;0.60;;
58643;SDS011;44411;49.994;8.660;2023-08-06T12:53:56;0.65;;;0.50;;
58643;SDS011;44411;49.994;8.660;2023-08-06T12:56:21;1.27;;;0.60;;
58643;SDS011;44411;49.994;8.660;2023-08-06T12:58:46;1.15;;;0.50;;
58643;SDS011;44411;49.994;8.660;2023-08-06T13:01:11;1.43;;;0.70;;
58643;SDS011;44411;49.994;8.660;2023-08-06T13:03:37;1.17;;;0.60;;
58643;SDS011;44411;49.994;8.660;2023-08-06T13:06:02;1.10;;;0.60;;
58643;SDS011;44411;49.994;8.660;2023-08-06T13:08:27;1.85;;;0.80;;
58643;SDS011;44411;49.994;8.660;2023-08-06T13:10:52;0.67;;;0.50;;
58643;SDS011;44411;49.994;8.660;2023-08-06T13:13:17;1.45;;;0.95;;
58643;SDS011;44411;49.994;8.660;2023-08-06T13:15:43;1.50;;;0.68;;
58643;SDS011;44411;49.994;8.660;2023-08-06T13:18:08;1.60;;;0.80;;
58643;SDS011;44411;49.994;8.660;2023-08-06T13:20:33;1.13;;;0.70;;
58643;SDS011;44411;49.994;8.660;2023-08-06T13:22:59;1.88;;;0.77;;
58643;SDS011;44411;49.994;8.660;2023-08-06T13:25:26;1.40;;;0.95;;
58643;SDS011;44411;49.994;8.660;2023-08-06T13:27:51;1.45;;;0.75;;
58643;SDS011;44411;49.994;8.660;2023-08-06T13:30:17;2.50;;;0.90;;
58643;SDS011;44411;49.994;8.660;2023-08-06T13:32:43;3.35;;;1.00;;
58643;SDS011;44411;49.994;8.660;2023-08-06T13:35:09;2.50;;;0.70;;
58643;SDS011;44411;49.994;8.660;2023-08-06T13:37:34;1.97;;;0.80;;
58643;SDS011;44411;49.994;8.660;2023-08-06T13:39:59;2.67;;;1.20;;
58643;SDS011;44411;49.994;8.660;2023-08-06T13:42:24;2.23;;;0.90;;
58643;SDS011;44411;49.994;8.660;2023-08-06T13:44:50;2.23;;;1.03;;
58643;SDS011;44411;49.994;8.660;2023-08-06T13:47:15;2.33;;;0.93;;
58643;SDS011;44411;49.994;8.660;2023-08-06T13:49:40;1.33;;;0.83;;
58643;SDS011;44411;49.994;8.660;2023-08-06T13:52:05;2.93;;;1.10;;
58643;SDS011;44411;49.994;8.660;2023-08-06T13:54:30;1.40;;;0.90;;
58643;SDS011;44411;49.994;8.660;2023-08-06T13:56:56;3.87;;;1.10;;
58643;SDS011;44411;49.994;8.660;2023-08-06T13:59:21;1.77;;;0.90;;
58643;SDS011;44411;49.994;8.660;2023-08-06T14:01:49;2.25;;;1.27;;
58643;SDS011;44411;49.994;8.660;2023-08-06T14:04:14;4.80;;;1.67;;
58643;SDS011;44411;49.994;8.660;2023-08-06T14:06:39;3.50;;;1.40;;
58643;SDS011;44411;49.994;8.660;2023-08-06T14:09:04;1.95;;;0.90;;
58643;SDS011;44411;49.994;8.660;2023-08-06T14:11:30;3.03;;;1.10;;
58643;SDS011;44411;49.994;8.660;2023-08-06T14:13:55;1.20;;;0.95;;
58643;SDS011;44411;49.994;8.660;2023-08-06T14:16:20;2.20;;;1.03;;
58643;SDS011;44411;49.994;8.660;2023-08-06T14:18:45;2.38;;;1.13;;
58643;SDS011;44411;49.994;8.660;2023-08-06T14:21:11;6.77;;;1.83;;
58643;SDS011;44411;49.994;8.660;2023-08-06T14:23:36;2.73;;;1.10;;
58643;SDS011;44411;49.994;8.660;2023-08-06T14:26:01;1.73;;;1.00;;
58643;SDS011;44411;49.994;8.660;2023-08-06T14:28:26;1.27;;;0.80;;
58643;SDS011;44411;49.994;8.660;2023-08-06T14:30:51;1.15;;;0.60;;
58643;SDS011;44411;49.994;8.660;2023-08-06T14:33:17;0.90;;;0.63;;
58643;SDS011;44411;49.994;8.660;2023-08-06T14:35:42;0.90;;;0.70;;
58643;SDS011;44411;49.994;8.660;2023-08-06T14:38:07;3.00;;;0.70;;
58643;SDS011;44411;49.994;8.660;2023-08-06T14:40:32;2.25;;;0.70;;
58643;SDS011;44411;49.994;8.660;2023-08-06T14:43:02;1.20;;;0.57;;
58643;SDS011;44411;49.994;8.660;2023-08-06T14:45:27;2.17;;;0.50;;
58643;SDS011;44411;49.994;8.660;2023-08-06T14:47:52;0.97;;;0.40;;
58643;SDS011;44411;49.994;8.660;2023-08-06T14:50:18;1.83;;;0.70;;
58643;SDS011;44411;49.994;8.660;2023-08-06T14:52:43;1.77;;;0.80;;